sensor_id;sensor_type;location;lat;lon;timestamp;pressure;altitude;pressure_sealevel;temperature;humidity
46456;BME280;64052;47.466;9.094;2023-02-13T00:04:18;97474.28;;;6.61;57.08
46456;BME280;64052;47.466;9.094;2023-02-13T00:09:20;97469.75;;;6.65;57.30
46456;BME280;64052;47.466;9.094;2023-02-13T00:14:22;97476.34;;;6.95;55.97
46456;BME280;64052;47.466;9.094;2023-02-13T00:19:23;97474.44;;;6.98;55.48
46456;BME280;64052;47.466;9.094;2023-02-13T00:24:25;97468.47;;;6.95;56.44
46456;BME280;64052;47.466;9.094;2023-02-13T00:29:26;97471.25;;;6.92;56.84
46456;BME280;64052;47.466;9.094;2023-02-13T00:34:28;97469.47;;;7.11;55.80
46456;BME280;64052;47.466;9.094;2023-02-13T00:39:29;97468.16;;;7.22;56.01
46456;BME280;64052;47.466;9.094;2023-02-13T00:44:31;97456.47;;;7.29;55.68
46456;BME280;64052;47.466;9.094;2023-02-13T00:49:34;97463.06;;;7.38;55.83
46456;BME280;64052;47.466;9.094;2023-02-13T00:54:36;97458.53;;;7.41;55.51
46456;BME280;64052;47.466;9.094;2023-02-13T00:59:39;97468.84;;;7.06;55.95
46456;BME280;64052;47.466;9.094;2023-02-13T01:04:41;97472.47;;;7.23;56.05
46456;BME280;64052;47.466;9.094;2023-02-13T01:09:42;97469.69;;;7.26;55.34
46456;BME280;64052;47.466;9.094;2023-02-13T01:14:45;97470.41;;;7.10;55.47
46456;BME280;64052;47.466;9.094;2023-02-13T01:19:46;97470.56;;;7.07;56.85
46456;BME280;64052;47.466;9.094;2023-02-13T01:24:48;97472.97;;;7.12;56.24
46456;BME280;64052;47.466;9.094;2023-02-13T01:29:49;97476.63;;;7.08;57.09
46456;BME280;64052;47.466;9.094;2023-02-13T01:34:51;97471.25;;;6.92;57.44
46456;BME280;64052;47.466;9.094;2023-02-13T01:39:52;97478.28;;;7.10;57.16
46456;BME280;64052;47.466;9.094;2023-02-13T01:44:55;97474.94;;;7.26;57.08
46456;BME280;64052;47.466;9.094;2023-02-13T01:50:14;97480.91;;;7.29;57.52
46456;BME280;64052;47.466;9.094;2023-02-13T01:55:17;97488.00;;;7.47;57.63
46456;BME280;64052;47.466;9.094;2023-02-13T02:00:19;97486.09;;;7.31;56.70
46456;BME280;64052;47.466;9.094;2023-02-13T02:05:23;97482.19;;;7.40;56.80
46456;BME280;64052;47.466;9.094;2023-02-13T02:10:27;97487.94;;;7.29;56.98
46456;BME280;64052;47.466;9.094;2023-02-13T02:15:30;97496.50;;;7.32;57.22
46456;BME280;64052;47.466;9.094;2023-02-13T02:31:38;97486.72;;;7.74;58.59
46456;BME280;64052;47.466;9.094;2023-02-13T02:41:59;97486.31;;;7.65;60.09
46456;BME280;64052;47.466;9.094;2023-02-13T02:47:14;97489.66;;;7.68;59.65
46456;BME280;64052;47.466;9.094;2023-02-13T02:57:33;97516.38;;;7.38;60.37
46456;BME280;64052;47.466;9.094;2023-02-13T03:02:36;97515.69;;;7.54;60.92
46456;BME280;64052;47.466;9.094;2023-02-13T03:07:38;97517.06;;;7.80;59.62
46456;BME280;64052;47.466;9.094;2023-02-13T03:12:46;97519.94;;;7.56;60.10
46456;BME280;64052;47.466;9.094;2023-02-13T03:17:49;97514.97;;;7.69;60.30
46456;BME280;64052;47.466;9.094;2023-02-13T03:28:16;97524.69;;;7.67;60.16
46456;BME280;64052;47.466;9.094;2023-02-13T03:43:58;97534.53;;;7.62;59.51
46456;BME280;64052;47.466;9.094;2023-02-13T03:49:04;97532.94;;;7.59;59.75
46456;BME280;64052;47.466;9.094;2023-02-13T03:59:22;97529.94;;;7.67;59.57
46456;BME280;64052;47.466;9.094;2023-02-13T04:04:32;97535.03;;;7.70;59.47
46456;BME280;64052;47.466;9.094;2023-02-13T04:09:38;97540.09;;;7.56;60.17
46456;BME280;64052;47.466;9.094;2023-02-13T04:15:33;97542.84;;;7.53;59.43
46456;BME280;64052;47.466;9.094;2023-02-13T04:20:37;97538.28;;;7.37;59.75
46456;BME280;64052;47.466;9.094;2023-02-13T04:25:41;97544.31;;;7.39;60.07
46456;BME280;64052;47.466;9.094;2023-02-13T04:30:44;97548.53;;;6.62;61.94
46456;BME280;64052;47.466;9.094;2023-02-13T04:35:46;97550.09;;;6.66;62.29
46456;BME280;64052;47.466;9.094;2023-02-13T04:40:47;97547.50;;;6.65;62.50
46456;BME280;64052;47.466;9.094;2023-02-13T04:45:49;97546.69;;;6.64;62.51
46456;BME280;64052;47.466;9.094;2023-02-13T04:50:51;97548.56;;;6.60;63.47
46456;BME280;64052;47.466;9.094;2023-02-13T04:55:52;97550.25;;;6.41;63.52
46456;BME280;64052;47.466;9.094;2023-02-13T05:00:54;97548.63;;;6.59;61.84
46456;BME280;64052;47.466;9.094;2023-02-13T05:05:56;97550.47;;;6.57;61.99
46456;BME280;64052;47.466;9.094;2023-02-13T05:10:57;97551.44;;;6.54;61.68
46456;BME280;64052;47.466;9.094;2023-02-13T05:15:59;97547.69;;;6.39;62.43
46456;BME280;64052;47.466;9.094;2023-02-13T05:21:01;97553.59;;;6.44;62.00
46456;BME280;64052;47.466;9.094;2023-02-13T05:26:04;97553.13;;;6.35;62.26
46456;BME280;64052;47.466;9.094;2023-02-13T05:31:06;97552.56;;;6.26;62.36
46456;BME280;64052;47.466;9.094;2023-02-13T05:36:07;97559.94;;;6.39;62.58
46456;BME280;64052;47.466;9.094;2023-02-13T05:41:09;97554.56;;;6.42;61.87
46456;BME280;64052;47.466;9.094;2023-02-13T05:46:11;97556.34;;;6.41;61.99
46456;BME280;64052;47.466;9.094;2023-02-13T05:51:12;97560.81;;;6.39;62.02
46456;BME280;64052;47.466;9.094;2023-02-13T05:56:14;97560.34;;;6.50;61.28
46456;BME280;64052;47.466;9.094;2023-02-13T06:01:15;97567.25;;;6.53;61.06
46456;BME280;64052;47.466;9.094;2023-02-13T06:06:17;97558.28;;;6.58;60.93
46456;BME280;64052;47.466;9.094;2023-02-13T06:11:19;97566.38;;;6.52;60.83
46456;BME280;64052;47.466;9.094;2023-02-13T06:16:20;97568.47;;;6.44;61.30
46456;BME280;64052;47.466;9.094;2023-02-13T06:21:22;97577.78;;;6.51;61.03
46456;BME280;64052;47.466;9.094;2023-02-13T06:26:23;97591.69;;;6.31;61.42
46456;BME280;64052;47.466;9.094;2023-02-13T06:31:25;97582.13;;;6.08;61.69
46456;BME280;64052;47.466;9.094;2023-02-13T06:36:27;97592.81;;;6.01;62.09
46456;BME280;64052;47.466;9.094;2023-02-13T06:41:29;97594.00;;;5.93;61.75
46456;BME280;64052;47.466;9.094;2023-02-13T06:46:30;97590.31;;;5.74;62.35
46456;BME280;64052;47.466;9.094;2023-02-13T06:51:32;97598.50;;;5.65;62.75
46456;BME280;64052;47.466;9.094;2023-02-13T06:56:33;97591.59;;;5.86;62.15
46456;BME280;64052;47.466;9.094;2023-02-13T07:01:35;97595.84;;;5.90;61.86
46456;BME280;64052;47.466;9.094;2023-02-13T07:06:36;97602.66;;;5.95;60.89
46456;BME280;64052;47.466;9.094;2023-02-13T07:11:38;97603.25;;;5.79;61.31
46456;BME280;64052;47.466;9.094;2023-02-13T07:16:39;97604.03;;;5.81;61.15
46456;BME280;64052;47.466;9.094;2023-02-13T07:21:41;97602.78;;;5.91;61.32
46456;BME280;64052;47.466;9.094;2023-02-13T07:26:43;97610.06;;;5.83;61.38
46456;BME280;64052;47.466;9.094;2023-02-13T07:31:44;97616.63;;;5.95;61.06
46456;BME280;64052;47.466;9.094;2023-02-13T07:36:46;97615.75;;;5.95;61.12
46456;BME280;64052;47.466;9.094;2023-02-13T07:41:49;97617.44;;;5.96;61.13
46456;BME280;64052;47.466;9.094;2023-02-13T07:46:50;97627.72;;;6.02;60.41
46456;BME280;64052;47.466;9.094;2023-02-13T07:51:52;97631.44;;;5.95;61.19
46456;BME280;64052;47.466;9.094;2023-02-13T07:56:53;97627.00;;;5.97;61.23
46456;BME280;64052;47.466;9.094;2023-02-13T08:01:55;97630.72;;;5.91;61.37
46456;BME280;64052;47.466;9.094;2023-02-13T08:06:56;97629.78;;;5.92;61.53
46456;BME280;64052;47.466;9.094;2023-02-13T08:11:58;97624.00;;;5.84;62.06
46456;BME280;64052;47.466;9.094;2023-02-13T08:16:59;97623.59;;;5.71;62.33
46456;BME280;64052;47.466;9.094;2023-02-13T08:22:01;97625.38;;;5.70;62.34
46456;BME280;64052;47.466;9.094;2023-02-13T08:27:02;97630.16;;;5.59;63.30
46456;BME280;64052;47.466;9.094;2023-02-13T08:32:04;97639.13;;;5.75;63.11
46456;BME280;64052;47.466;9.094;2023-02-13T08:37:06;97638.34;;;5.73;62.89
46456;BME280;64052;47.466;9.094;2023-02-13T08:42:07;97644.25;;;5.79;63.45
46456;BME280;64052;47.466;9.094;2023-02-13T08:47:09;97642.03;;;5.91;63.40
46456;BME280;64052;47.466;9.094;2023-02-13T08:52:10;97641.81;;;5.98;63.28
46456;BME280;64052;47.466;9.094;2023-02-13T08:57:12;97645.41;;;6.19;62.25
46456;BME280;64052;47.466;9.094;2023-02-13T09:02:13;97650.28;;;6.28;62.08
46456;BME280;64052;47.466;9.094;2023-02-13T09:07:15;97644.34;;;6.25;62.27
46456;BME280;64052;47.466;9.094;2023-02-13T09:12:17;97656.09;;;6.37;62.04
46456;BME280;64052;47.466;9.094;2023-02-13T09:17:18;97653.50;;;6.35;61.71
46456;BME280;64052;47.466;9.094;2023-02-13T09:22:20;97649.69;;;6.44;61.78
46456;BME280;64052;47.466;9.094;2023-02-13T09:27:21;97652.75;;;6.55;60.94
46456;BME280;64052;47.466;9.094;2023-02-13T09:32:23;97643.84;;;6.59;61.08
46456;BME280;64052;47.466;9.094;2023-02-13T09:37:25;97649.16;;;6.36;61.94
46456;BME280;64052;47.466;9.094;2023-02-13T09:42:30;97649.31;;;6.31;61.53
46456;BME280;64052;47.466;9.094;2023-02-13T09:47:36;97651.03;;;6.32;62.25
46456;BME280;64052;47.466;9.094;2023-02-13T09:52:42;97653.41;;;6.38;61.29
46456;BME280;64052;47.466;9.094;2023-02-13T10:18:49;97647.84;;;6.68;60.28
46456;BME280;64052;47.466;9.094;2023-02-13T10:24:05;97650.28;;;6.73;60.42
46456;BME280;64052;47.466;9.094;2023-02-13T10:29:35;97644.69;;;6.60;60.88
46456;BME280;64052;47.466;9.094;2023-02-13T10:34:44;97640.06;;;6.67;60.77
46456;BME280;64052;47.466;9.094;2023-02-13T10:39:49;97634.69;;;6.70;60.66
46456;BME280;64052;47.466;9.094;2023-02-13T11:00:58;97622.88;;;7.23;58.50
46456;BME280;64052;47.466;9.094;2023-02-13T11:06:07;97614.53;;;7.13;59.13
46456;BME280;64052;47.466;9.094;2023-02-13T11:16:38;97605.09;;;7.09;59.08
46456;BME280;64052;47.466;9.094;2023-02-13T11:21:39;97595.91;;;7.20;58.51
46456;BME280;64052;47.466;9.094;2023-02-13T11:26:42;97593.59;;;7.32;58.37
46456;BME280;64052;47.466;9.094;2023-02-13T11:31:43;97592.41;;;7.40;58.20
46456;BME280;64052;47.466;9.094;2023-02-13T11:36:50;97589.28;;;7.51;58.35
46456;BME280;64052;47.466;9.094;2023-02-13T11:41:52;97586.06;;;7.65;57.20
46456;BME280;64052;47.466;9.094;2023-02-13T11:46:55;97584.78;;;7.54;57.91
46456;BME280;64052;47.466;9.094;2023-02-13T11:52:00;97583.63;;;7.60;58.52
46456;BME280;64052;47.466;9.094;2023-02-13T11:57:22;97587.50;;;7.72;57.46
46456;BME280;64052;47.466;9.094;2023-02-13T12:02:43;97581.59;;;7.86;57.32
46456;BME280;64052;47.466;9.094;2023-02-13T12:07:46;97578.50;;;8.34;55.91
46456;BME280;64052;47.466;9.094;2023-02-13T12:23:13;97563.03;;;10.47;49.44
46456;BME280;64052;47.466;9.094;2023-02-13T12:28:24;97561.81;;;10.37;50.34
46456;BME280;64052;47.466;9.094;2023-02-13T12:33:57;97553.63;;;10.43;50.63
46456;BME280;64052;47.466;9.094;2023-02-13T13:00:44;97522.97;;;17.40;35.38
46456;BME280;64052;47.466;9.094;2023-02-13T13:16:27;97513.63;;;18.67;32.18
46456;BME280;64052;47.466;9.094;2023-02-13T13:26:47;97494.22;;;17.75;34.23
46456;BME280;64052;47.466;9.094;2023-02-13T13:31:56;97491.97;;;18.11;33.63
46456;BME280;64052;47.466;9.094;2023-02-13T13:42:40;97500.19;;;16.62;36.39
46456;BME280;64052;47.466;9.094;2023-02-13T13:53:08;97492.94;;;16.20;37.19
46456;BME280;64052;47.466;9.094;2023-02-13T13:58:24;97488.56;;;15.52;39.10
46456;BME280;64052;47.466;9.094;2023-02-13T14:03:35;97490.41;;;15.29;39.63
46456;BME280;64052;47.466;9.094;2023-02-13T14:13:41;97495.16;;;14.54;41.54
46456;BME280;64052;47.466;9.094;2023-02-13T14:18:45;97485.78;;;14.61;41.40
46456;BME280;64052;47.466;9.094;2023-02-13T14:23:49;97483.59;;;14.30;41.70
46456;BME280;64052;47.466;9.094;2023-02-13T14:45:04;97492.53;;;13.68;44.21
46456;BME280;64052;47.466;9.094;2023-02-13T14:49:41;97491.47;;;13.57;44.01
46456;BME280;64052;47.466;9.094;2023-02-13T14:54:47;97487.91;;;13.45;44.51
46456;BME280;64052;47.466;9.094;2023-02-13T14:59:58;97498.59;;;13.44;44.36
46456;BME280;64052;47.466;9.094;2023-02-13T15:05:04;97494.91;;;13.33;44.10
46456;BME280;64052;47.466;9.094;2023-02-13T15:15:52;97484.19;;;12.96;45.53
46456;BME280;64052;47.466;9.094;2023-02-13T15:20:56;97480.16;;;12.64;46.40
46456;BME280;64052;47.466;9.094;2023-02-13T15:26:01;97477.28;;;12.55;46.75
46456;BME280;64052;47.466;9.094;2023-02-13T15:31:21;97477.06;;;12.45;46.58
46456;BME280;64052;47.466;9.094;2023-02-13T15:36:26;97480.22;;;12.37;46.36
46456;BME280;64052;47.466;9.094;2023-02-13T15:41:32;97474.50;;;12.43;46.08
46456;BME280;64052;47.466;9.094;2023-02-13T15:46:36;97468.47;;;12.41;46.69
46456;BME280;64052;47.466;9.094;2023-02-13T15:51:38;97474.13;;;12.22;47.16
46456;BME280;64052;47.466;9.094;2023-02-13T15:56:43;97472.91;;;11.86;47.49
46456;BME280;64052;47.466;9.094;2023-02-13T16:01:45;97471.75;;;11.62;48.36
46456;BME280;64052;47.466;9.094;2023-02-13T16:06:49;97472.41;;;11.51;48.25
46456;BME280;64052;47.466;9.094;2023-02-13T16:11:58;97467.44;;;11.03;49.46
46456;BME280;64052;47.466;9.094;2023-02-13T16:17:05;97464.09;;;10.09;51.22
46456;BME280;64052;47.466;9.094;2023-02-13T16:27:30;97475.00;;;9.87;51.50
46456;BME280;64052;47.466;9.094;2023-02-13T16:32:34;97472.88;;;9.46;52.30
46456;BME280;64052;47.466;9.094;2023-02-13T16:37:49;97479.94;;;9.29;52.81
46456;BME280;64052;47.466;9.094;2023-02-13T16:42:51;97483.38;;;9.30;52.73
46456;BME280;64052;47.466;9.094;2023-02-13T16:47:58;97484.28;;;8.96;52.64
46456;BME280;64052;47.466;9.094;2023-02-13T16:53:01;97496.00;;;8.55;52.61
46456;BME280;64052;47.466;9.094;2023-02-13T16:58:04;97491.31;;;8.43;53.05
46456;BME280;64052;47.466;9.094;2023-02-13T17:03:07;97505.72;;;8.16;53.99
46456;BME280;64052;47.466;9.094;2023-02-13T17:08:09;97511.75;;;8.19;53.95
46456;BME280;64052;47.466;9.094;2023-02-13T17:13:14;97508.06;;;8.23;54.38
46456;BME280;64052;47.466;9.094;2023-02-13T17:18:16;97509.22;;;8.35;54.17
46456;BME280;64052;47.466;9.094;2023-02-13T17:23:22;97504.28;;;8.46;53.98
46456;BME280;64052;47.466;9.094;2023-02-13T17:28:25;97506.97;;;8.09;55.06
46456;BME280;64052;47.466;9.094;2023-02-13T17:33:31;97515.53;;;7.76;54.12
46456;BME280;64052;47.466;9.094;2023-02-13T17:38:32;97512.63;;;7.44;55.04
46456;BME280;64052;47.466;9.094;2023-02-13T17:43:34;97510.06;;;7.23;56.16
46456;BME280;64052;47.466;9.094;2023-02-13T17:48:35;97516.97;;;7.05;56.41
46456;BME280;64052;47.466;9.094;2023-02-13T17:53:37;97513.31;;;6.88;56.93
46456;BME280;64052;47.466;9.094;2023-02-13T17:58:38;97517.53;;;6.72;56.43
46456;BME280;64052;47.466;9.094;2023-02-13T18:03:40;97528.16;;;6.69;56.66
46456;BME280;64052;47.466;9.094;2023-02-13T18:08:41;97525.91;;;6.59;56.49
46456;BME280;64052;47.466;9.094;2023-02-13T18:13:43;97535.34;;;6.43;56.01
46456;BME280;64052;47.466;9.094;2023-02-13T18:18:44;97527.38;;;6.44;56.19
46456;BME280;64052;47.466;9.094;2023-02-13T18:23:46;97528.03;;;6.29;56.63
46456;BME280;64052;47.466;9.094;2023-02-13T18:28:47;97530.50;;;6.32;57.37
46456;BME280;64052;47.466;9.094;2023-02-13T18:33:49;97531.47;;;6.29;57.16
46456;BME280;64052;47.466;9.094;2023-02-13T18:38:50;97525.09;;;6.37;56.42
46456;BME280;64052;47.466;9.094;2023-02-13T18:43:55;97517.72;;;6.24;55.37
46456;BME280;64052;47.466;9.094;2023-02-13T18:48:56;97523.19;;;5.96;56.26
46456;BME280;64052;47.466;9.094;2023-02-13T18:53:58;97520.28;;;6.03;56.06
46456;BME280;64052;47.466;9.094;2023-02-13T18:59:00;97530.88;;;6.00;56.32
46456;BME280;64052;47.466;9.094;2023-02-13T19:04:02;97524.28;;;5.90;56.37
46456;BME280;64052;47.466;9.094;2023-02-13T19:09:05;97516.56;;;5.65;57.17
46456;BME280;64052;47.466;9.094;2023-02-13T19:14:06;97524.41;;;5.65;57.87
46456;BME280;64052;47.466;9.094;2023-02-13T19:19:08;97510.53;;;5.85;57.11
46456;BME280;64052;47.466;9.094;2023-02-13T19:24:10;97522.44;;;5.70;57.04
46456;BME280;64052;47.466;9.094;2023-02-13T19:29:12;97518.31;;;5.40;56.74
46456;BME280;64052;47.466;9.094;2023-02-13T19:34:14;97528.69;;;5.19;57.23
46456;BME280;64052;47.466;9.094;2023-02-13T19:39:15;97525.84;;;5.26;57.37
46456;BME280;64052;47.466;9.094;2023-02-13T19:44:17;97526.06;;;5.19;57.87
46456;BME280;64052;47.466;9.094;2023-02-13T19:49:18;97517.34;;;5.19;57.08
46456;BME280;64052;47.466;9.094;2023-02-13T19:54:20;97530.88;;;5.06;56.72
46456;BME280;64052;47.466;9.094;2023-02-13T19:59:21;97537.78;;;5.09;56.56
46456;BME280;64052;47.466;9.094;2023-02-13T20:04:23;97543.72;;;4.89;56.40
46456;BME280;64052;47.466;9.094;2023-02-13T20:09:24;97547.16;;;4.89;57.23
46456;BME280;64052;47.466;9.094;2023-02-13T20:14:26;97547.09;;;5.16;57.25
46456;BME280;64052;47.466;9.094;2023-02-13T20:19:27;97552.69;;;5.31;57.15
46456;BME280;64052;47.466;9.094;2023-02-13T20:24:29;97550.13;;;5.29;56.31
46456;BME280;64052;47.466;9.094;2023-02-13T20:29:30;97550.50;;;5.18;56.97
46456;BME280;64052;47.466;9.094;2023-02-13T20:34:32;97539.94;;;5.22;57.34
46456;BME280;64052;47.466;9.094;2023-02-13T20:39:53;97541.25;;;5.33;57.70
46456;BME280;64052;47.466;9.094;2023-02-13T20:44:55;97538.50;;;5.37;57.34
46456;BME280;64052;47.466;9.094;2023-02-13T20:49:56;97535.06;;;5.36;58.07
46456;BME280;64052;47.466;9.094;2023-02-13T20:54:58;97534.00;;;5.40;58.17
46456;BME280;64052;47.466;9.094;2023-02-13T20:59:59;97531.41;;;5.40;58.51
46456;BME280;64052;47.466;9.094;2023-02-13T21:05:01;97530.41;;;5.44;58.37
46456;BME280;64052;47.466;9.094;2023-02-13T21:10:03;97531.19;;;5.46;58.56
46456;BME280;64052;47.466;9.094;2023-02-13T21:15:04;97531.22;;;5.45;58.64
46456;BME280;64052;47.466;9.094;2023-02-13T21:20:07;97537.09;;;5.52;58.92
46456;BME280;64052;47.466;9.094;2023-02-13T21:25:08;97531.84;;;5.52;59.19
46456;BME280;64052;47.466;9.094;2023-02-13T21:30:10;97535.16;;;5.57;59.57
46456;BME280;64052;47.466;9.094;2023-02-13T21:35:11;97531.38;;;5.64;60.08
46456;BME280;64052;47.466;9.094;2023-02-13T21:40:13;97515.94;;;5.80;59.52
46456;BME280;64052;47.466;9.094;2023-02-13T21:45:14;97518.41;;;5.85;58.75
46456;BME280;64052;47.466;9.094;2023-02-13T21:50:16;97513.63;;;5.95;59.01
46456;BME280;64052;47.466;9.094;2023-02-13T21:55:18;97519.06;;;5.90;60.15
46456;BME280;64052;47.466;9.094;2023-02-13T22:00:19;97517.78;;;6.00;60.31
46456;BME280;64052;47.466;9.094;2023-02-13T22:05:21;97521.13;;;6.06;61.13
46456;BME280;64052;47.466;9.094;2023-02-13T22:10:22;97527.38;;;6.01;60.21
46456;BME280;64052;47.466;9.094;2023-02-13T22:15:24;97518.03;;;5.94;61.88
46456;BME280;64052;47.466;9.094;2023-02-13T22:20:25;97520.41;;;6.00;61.11
46456;BME280;64052;47.466;9.094;2023-02-13T22:25:27;97516.28;;;6.17;61.34
46456;BME280;64052;47.466;9.094;2023-02-13T22:30:28;97519.34;;;6.06;62.25
46456;BME280;64052;47.466;9.094;2023-02-13T22:35:30;97523.88;;;6.01;63.00
46456;BME280;64052;47.466;9.094;2023-02-13T22:40:35;97525.44;;;6.07;63.76
46456;BME280;64052;47.466;9.094;2023-02-13T22:45:37;97527.25;;;6.04;63.00
46456;BME280;64052;47.466;9.094;2023-02-13T22:50:39;97522.00;;;6.04;63.64
46456;BME280;64052;47.466;9.094;2023-02-13T22:55:40;97524.03;;;6.20;62.85
46456;BME280;64052;47.466;9.094;2023-02-13T23:00:42;97518.97;;;6.15;63.51
46456;BME280;64052;47.466;9.094;2023-02-13T23:05:43;97524.06;;;6.18;63.53
46456;BME280;64052;47.466;9.094;2023-02-13T23:10:45;97526.50;;;6.23;62.88
46456;BME280;64052;47.466;9.094;2023-02-13T23:15:46;97525.28;;;6.32;63.60
46456;BME280;64052;47.466;9.094;2023-02-13T23:20:47;97533.13;;;6.32;62.47
46456;BME280;64052;47.466;9.094;2023-02-13T23:25:49;97534.41;;;5.99;63.37
46456;BME280;64052;47.466;9.094;2023-02-13T23:30:50;97531.69;;;6.02;63.13
46456;BME280;64052;47.466;9.094;2023-02-13T23:35:52;97540.78;;;5.92;63.12
46456;BME280;64052;47.466;9.094;2023-02-13T23:40:54;97539.34;;;5.85;63.08
46456;BME280;64052;47.466;9.094;2023-02-13T23:45:55;97535.25;;;5.77;63.00
46456;BME280;64052;47.466;9.094;2023-02-13T23:50:57;97535.38;;;5.97;62.74
46456;BME280;64052;47.466;9.094;2023-02-13T23:55:59;97527.81;;;5.89;62.35
